sensor_id;sensor_type;location;lat;lon;timestamp;P1;durP1;ratioP1;P2;durP2;ratioP2
45728;SDS011;31439;53.512;10.206;2022-11-15T00:00:04;35.42;;;23.08;;
45728;SDS011;31439;53.512;10.206;2022-11-15T00:02:30;37.10;;;24.33;;
45728;SDS011;31439;53.512;10.206;2022-11-15T00:04:56;36.85;;;22.33;;
45728;SDS011;31439;53.512;10.206;2022-11-15T00:07:21;36.20;;;24.00;;
45728;SDS011;31439;53.512;10.206;2022-11-15T00:09:47;36.55;;;22.75;;
45728;SDS011;31439;53.512;10.206;2022-11-15T00:12:13;37.80;;;24.02;;
45728;SDS011;31439;53.512;10.206;2022-11-15T00:14:38;36.05;;;22.95;;
45728;SDS011;31439;53.512;10.206;2022-11-15T00:17:04;33.90;;;22.33;;
45728;SDS011;31439;53.512;10.206;2022-11-15T00:19:30;33.92;;;21.88;;
45728;SDS011;31439;53.512;10.206;2022-11-15T00:21:55;36.75;;;23.13;;
45728;SDS011;31439;53.512;10.206;2022-11-15T00:24:21;37.20;;;23.02;;
45728;SDS011;31439;53.512;10.206;2022-11-15T00:26:52;35.72;;;22.98;;
45728;SDS011;31439;53.512;10.206;2022-11-15T00:29:18;37.13;;;23.67;;
45728;SDS011;31439;53.512;10.206;2022-11-15T00:31:44;35.58;;;22.83;;
45728;SDS011;31439;53.512;10.206;2022-11-15T00:34:09;38.97;;;24.85;;
45728;SDS011;31439;53.512;10.206;2022-11-15T00:36:35;39.08;;;24.13;;
45728;SDS011;31439;53.512;10.206;2022-11-15T00:39:03;39.88;;;22.40;;
45728;SDS011;31439;53.512;10.206;2022-11-15T00:41:30;34.55;;;23.05;;
45728;SDS011;31439;53.512;10.206;2022-11-15T00:43:56;34.70;;;22.95;;
45728;SDS011;31439;53.512;10.206;2022-11-15T00:46:22;35.40;;;23.25;;
45728;SDS011;31439;53.512;10.206;2022-11-15T00:48:47;35.08;;;22.67;;
45728;SDS011;31439;53.512;10.206;2022-11-15T00:51:13;32.38;;;21.48;;
45728;SDS011;31439;53.512;10.206;2022-11-15T00:53:38;31.58;;;21.77;;
45728;SDS011;31439;53.512;10.206;2022-11-15T00:56:04;34.58;;;22.80;;
45728;SDS011;31439;53.512;10.206;2022-11-15T00:58:30;33.22;;;21.90;;
45728;SDS011;31439;53.512;10.206;2022-11-15T01:00:55;33.20;;;21.42;;
45728;SDS011;31439;53.512;10.206;2022-11-15T01:03:21;32.40;;;21.77;;
45728;SDS011;31439;53.512;10.206;2022-11-15T01:05:47;32.95;;;21.52;;
45728;SDS011;31439;53.512;10.206;2022-11-15T01:08:13;30.85;;;20.27;;
45728;SDS011;31439;53.512;10.206;2022-11-15T01:10:40;32.70;;;20.50;;
45728;SDS011;31439;53.512;10.206;2022-11-15T01:13:06;33.92;;;21.80;;
45728;SDS011;31439;53.512;10.206;2022-11-15T01:15:31;34.72;;;21.55;;
45728;SDS011;31439;53.512;10.206;2022-11-15T01:17:57;31.35;;;20.73;;
45728;SDS011;31439;53.512;10.206;2022-11-15T01:20:22;28.52;;;19.77;;
45728;SDS011;31439;53.512;10.206;2022-11-15T01:22:48;33.28;;;20.65;;
45728;SDS011;31439;53.512;10.206;2022-11-15T01:25:13;29.92;;;20.63;;
45728;SDS011;31439;53.512;10.206;2022-11-15T01:27:39;31.25;;;20.33;;
45728;SDS011;31439;53.512;10.206;2022-11-15T01:30:05;31.05;;;20.30;;
45728;SDS011;31439;53.512;10.206;2022-11-15T01:32:31;29.58;;;19.92;;
45728;SDS011;31439;53.512;10.206;2022-11-15T01:34:57;28.95;;;19.63;;
45728;SDS011;31439;53.512;10.206;2022-11-15T01:37:22;34.08;;;20.42;;
45728;SDS011;31439;53.512;10.206;2022-11-15T01:39:48;31.05;;;20.17;;
45728;SDS011;31439;53.512;10.206;2022-11-15T01:42:13;31.88;;;20.70;;
45728;SDS011;31439;53.512;10.206;2022-11-15T01:47:15;31.10;;;20.10;;
45728;SDS011;31439;53.512;10.206;2022-11-15T01:49:54;28.13;;;19.40;;
45728;SDS011;31439;53.512;10.206;2022-11-15T01:52:25;29.13;;;20.00;;
45728;SDS011;31439;53.512;10.206;2022-11-15T01:54:55;31.55;;;20.60;;
45728;SDS011;31439;53.512;10.206;2022-11-15T01:57:34;30.23;;;20.05;;
45728;SDS011;31439;53.512;10.206;2022-11-15T02:00:00;30.55;;;19.90;;
45728;SDS011;31439;53.512;10.206;2022-11-15T02:02:28;30.50;;;19.70;;
45728;SDS011;31439;53.512;10.206;2022-11-15T02:04:53;30.27;;;19.30;;
45728;SDS011;31439;53.512;10.206;2022-11-15T02:07:19;27.80;;;18.98;;
45728;SDS011;31439;53.512;10.206;2022-11-15T02:09:47;28.92;;;19.08;;
45728;SDS011;31439;53.512;10.206;2022-11-15T02:12:15;29.88;;;19.65;;
45728;SDS011;31439;53.512;10.206;2022-11-15T02:14:44;28.27;;;19.10;;
45728;SDS011;31439;53.512;10.206;2022-11-15T02:23:17;28.05;;;18.98;;
45728;SDS011;31439;53.512;10.206;2022-11-15T02:34:19;29.35;;;19.20;;
45728;SDS011;31439;53.512;10.206;2022-11-15T02:37:15;28.58;;;18.58;;
45728;SDS011;31439;53.512;10.206;2022-11-15T02:39:46;27.77;;;18.05;;
45728;SDS011;31439;53.512;10.206;2022-11-15T02:42:15;28.10;;;18.85;;
45728;SDS011;31439;53.512;10.206;2022-11-15T02:45:05;27.05;;;18.33;;
45728;SDS011;31439;53.512;10.206;2022-11-15T02:47:35;25.70;;;17.45;;
45728;SDS011;31439;53.512;10.206;2022-11-15T02:50:07;26.15;;;17.60;;
45728;SDS011;31439;53.512;10.206;2022-11-15T02:52:35;29.40;;;18.67;;
45728;SDS011;31439;53.512;10.206;2022-11-15T02:55:01;26.75;;;18.58;;
45728;SDS011;31439;53.512;10.206;2022-11-15T02:57:43;25.90;;;18.90;;
45728;SDS011;31439;53.512;10.206;2022-11-15T03:00:19;26.05;;;18.05;;
45728;SDS011;31439;53.512;10.206;2022-11-15T03:11:01;27.60;;;17.88;;
45728;SDS011;31439;53.512;10.206;2022-11-15T03:22:08;26.70;;;17.48;;
45728;SDS011;31439;53.512;10.206;2022-11-15T03:24:36;26.83;;;16.90;;
45728;SDS011;31439;53.512;10.206;2022-11-15T03:27:04;23.48;;;16.35;;
45728;SDS011;31439;53.512;10.206;2022-11-15T03:29:35;24.70;;;16.20;;
45728;SDS011;31439;53.512;10.206;2022-11-15T03:32:07;22.50;;;15.30;;
45728;SDS011;31439;53.512;10.206;2022-11-15T03:37:18;26.92;;;16.70;;
45728;SDS011;31439;53.512;10.206;2022-11-15T03:39:47;23.55;;;16.00;;
45728;SDS011;31439;53.512;10.206;2022-11-15T03:42:27;25.38;;;15.85;;
45728;SDS011;31439;53.512;10.206;2022-11-15T03:45:07;24.33;;;15.80;;
45728;SDS011;31439;53.512;10.206;2022-11-15T03:47:49;24.35;;;15.65;;
45728;SDS011;31439;53.512;10.206;2022-11-15T03:50:19;23.20;;;16.52;;
45728;SDS011;31439;53.512;10.206;2022-11-15T03:52:47;23.65;;;16.23;;
45728;SDS011;31439;53.512;10.206;2022-11-15T03:55:18;23.15;;;15.63;;
45728;SDS011;31439;53.512;10.206;2022-11-15T03:57:44;23.55;;;15.55;;
45728;SDS011;31439;53.512;10.206;2022-11-15T04:00:13;23.67;;;16.25;;
45728;SDS011;31439;53.512;10.206;2022-11-15T04:02:39;23.27;;;15.75;;
45728;SDS011;31439;53.512;10.206;2022-11-15T04:05:04;23.15;;;15.27;;
45728;SDS011;31439;53.512;10.206;2022-11-15T04:07:30;23.92;;;15.70;;
45728;SDS011;31439;53.512;10.206;2022-11-15T04:09:56;22.02;;;15.52;;
45728;SDS011;31439;53.512;10.206;2022-11-15T04:12:27;30.27;;;15.98;;
45728;SDS011;31439;53.512;10.206;2022-11-15T04:15:02;24.70;;;15.68;;
45728;SDS011;31439;53.512;10.206;2022-11-15T04:17:39;23.83;;;15.40;;
45728;SDS011;31439;53.512;10.206;2022-11-15T04:20:06;22.92;;;15.45;;
45728;SDS011;31439;53.512;10.206;2022-11-15T04:22:55;21.33;;;15.27;;
45728;SDS011;31439;53.512;10.206;2022-11-15T04:25:40;24.65;;;16.27;;
45728;SDS011;31439;53.512;10.206;2022-11-15T04:28:07;24.67;;;15.88;;
45728;SDS011;31439;53.512;10.206;2022-11-15T04:30:32;23.23;;;16.08;;
45728;SDS011;31439;53.512;10.206;2022-11-15T04:32:58;23.27;;;16.10;;
45728;SDS011;31439;53.512;10.206;2022-11-15T04:35:24;23.02;;;15.48;;
45728;SDS011;31439;53.512;10.206;2022-11-15T04:37:49;21.42;;;15.20;;
45728;SDS011;31439;53.512;10.206;2022-11-15T04:40:15;21.55;;;15.32;;
45728;SDS011;31439;53.512;10.206;2022-11-15T04:42:41;22.75;;;15.75;;
45728;SDS011;31439;53.512;10.206;2022-11-15T04:45:10;22.17;;;14.77;;
45728;SDS011;31439;53.512;10.206;2022-11-15T04:47:35;24.45;;;15.52;;
45728;SDS011;31439;53.512;10.206;2022-11-15T04:50:01;23.15;;;15.35;;
45728;SDS011;31439;53.512;10.206;2022-11-15T04:52:27;22.95;;;15.07;;
45728;SDS011;31439;53.512;10.206;2022-11-15T04:54:53;21.45;;;14.45;;
45728;SDS011;31439;53.512;10.206;2022-11-15T04:57:18;20.20;;;14.48;;
45728;SDS011;31439;53.512;10.206;2022-11-15T04:59:44;22.67;;;15.10;;
45728;SDS011;31439;53.512;10.206;2022-11-15T05:02:10;21.20;;;15.27;;
45728;SDS011;31439;53.512;10.206;2022-11-15T05:04:35;21.70;;;14.80;;
45728;SDS011;31439;53.512;10.206;2022-11-15T05:07:01;21.60;;;15.27;;
45728;SDS011;31439;53.512;10.206;2022-11-15T05:09:27;19.63;;;14.15;;
45728;SDS011;31439;53.512;10.206;2022-11-15T05:11:52;21.10;;;14.57;;
45728;SDS011;31439;53.512;10.206;2022-11-15T05:14:18;21.15;;;14.10;;
45728;SDS011;31439;53.512;10.206;2022-11-15T05:16:43;20.65;;;15.00;;
45728;SDS011;31439;53.512;10.206;2022-11-15T05:19:09;23.15;;;13.90;;
45728;SDS011;31439;53.512;10.206;2022-11-15T05:21:35;22.17;;;14.27;;
45728;SDS011;31439;53.512;10.206;2022-11-15T05:24:01;19.90;;;14.13;;
45728;SDS011;31439;53.512;10.206;2022-11-15T05:26:26;25.05;;;14.75;;
45728;SDS011;31439;53.512;10.206;2022-11-15T05:28:53;21.70;;;14.15;;
45728;SDS011;31439;53.512;10.206;2022-11-15T05:31:20;22.25;;;13.77;;
45728;SDS011;31439;53.512;10.206;2022-11-15T05:33:46;21.60;;;14.65;;
45728;SDS011;31439;53.512;10.206;2022-11-15T05:36:18;21.58;;;14.38;;
45728;SDS011;31439;53.512;10.206;2022-11-15T05:38:52;25.73;;;13.45;;
45728;SDS011;31439;53.512;10.206;2022-11-15T05:41:18;20.90;;;13.82;;
45728;SDS011;31439;53.512;10.206;2022-11-15T05:43:46;21.20;;;13.75;;
45728;SDS011;31439;53.512;10.206;2022-11-15T05:46:14;21.20;;;13.73;;
45728;SDS011;31439;53.512;10.206;2022-11-15T05:48:40;19.25;;;13.95;;
45728;SDS011;31439;53.512;10.206;2022-11-15T05:51:09;20.13;;;14.10;;
45728;SDS011;31439;53.512;10.206;2022-11-15T05:53:36;20.50;;;14.18;;
45728;SDS011;31439;53.512;10.206;2022-11-15T05:56:03;19.73;;;13.30;;
45728;SDS011;31439;53.512;10.206;2022-11-15T05:58:31;22.17;;;14.57;;
45728;SDS011;31439;53.512;10.206;2022-11-15T06:00:57;20.73;;;13.85;;
45728;SDS011;31439;53.512;10.206;2022-11-15T06:03:24;20.70;;;14.88;;
45728;SDS011;31439;53.512;10.206;2022-11-15T06:05:50;20.42;;;14.50;;
45728;SDS011;31439;53.512;10.206;2022-11-15T06:08:15;20.25;;;13.23;;
45728;SDS011;31439;53.512;10.206;2022-11-15T06:10:41;21.92;;;14.80;;
45728;SDS011;31439;53.512;10.206;2022-11-15T06:13:06;20.90;;;14.32;;
45728;SDS011;31439;53.512;10.206;2022-11-15T06:15:32;20.33;;;14.32;;
45728;SDS011;31439;53.512;10.206;2022-11-15T06:17:59;20.48;;;14.52;;
45728;SDS011;31439;53.512;10.206;2022-11-15T06:20:25;20.05;;;14.93;;
45728;SDS011;31439;53.512;10.206;2022-11-15T06:22:58;22.65;;;15.60;;
45728;SDS011;31439;53.512;10.206;2022-11-15T06:25:25;24.23;;;15.90;;
45728;SDS011;31439;53.512;10.206;2022-11-15T06:27:51;22.77;;;15.65;;
45728;SDS011;31439;53.512;10.206;2022-11-15T06:30:18;21.23;;;15.13;;
45728;SDS011;31439;53.512;10.206;2022-11-15T06:32:44;25.77;;;15.30;;
45728;SDS011;31439;53.512;10.206;2022-11-15T06:35:09;22.88;;;15.82;;
45728;SDS011;31439;53.512;10.206;2022-11-15T06:37:35;26.08;;;16.33;;
45728;SDS011;31439;53.512;10.206;2022-11-15T06:40:01;23.42;;;16.40;;
45728;SDS011;31439;53.512;10.206;2022-11-15T06:42:27;26.05;;;16.15;;
45728;SDS011;31439;53.512;10.206;2022-11-15T06:44:53;24.83;;;16.42;;
45728;SDS011;31439;53.512;10.206;2022-11-15T06:47:18;21.25;;;15.32;;
45728;SDS011;31439;53.512;10.206;2022-11-15T06:49:44;22.20;;;15.70;;
45728;SDS011;31439;53.512;10.206;2022-11-15T06:52:09;21.52;;;15.32;;
45728;SDS011;31439;53.512;10.206;2022-11-15T06:54:35;23.52;;;15.63;;
45728;SDS011;31439;53.512;10.206;2022-11-15T06:57:00;23.90;;;16.08;;
45728;SDS011;31439;53.512;10.206;2022-11-15T06:59:26;24.42;;;16.17;;
45728;SDS011;31439;53.512;10.206;2022-11-15T07:01:54;24.95;;;15.93;;
45728;SDS011;31439;53.512;10.206;2022-11-15T07:04:20;24.38;;;15.38;;
45728;SDS011;31439;53.512;10.206;2022-11-15T07:06:49;23.45;;;15.50;;
45728;SDS011;31439;53.512;10.206;2022-11-15T07:09:14;21.30;;;15.65;;
45728;SDS011;31439;53.512;10.206;2022-11-15T07:11:40;22.15;;;15.25;;
45728;SDS011;31439;53.512;10.206;2022-11-15T07:14:05;22.70;;;15.55;;
45728;SDS011;31439;53.512;10.206;2022-11-15T07:16:31;24.55;;;16.05;;
45728;SDS011;31439;53.512;10.206;2022-11-15T07:18:57;22.95;;;16.02;;
45728;SDS011;31439;53.512;10.206;2022-11-15T07:21:22;21.60;;;15.55;;
45728;SDS011;31439;53.512;10.206;2022-11-15T07:23:48;24.48;;;15.75;;
45728;SDS011;31439;53.512;10.206;2022-11-15T07:26:14;22.50;;;15.80;;
45728;SDS011;31439;53.512;10.206;2022-11-15T07:28:39;24.20;;;16.30;;
45728;SDS011;31439;53.512;10.206;2022-11-15T07:31:06;23.63;;;15.95;;
45728;SDS011;31439;53.512;10.206;2022-11-15T07:33:33;16.92;;;12.20;;
45728;SDS011;31439;53.512;10.206;2022-11-15T07:36:02;18.40;;;13.35;;
45728;SDS011;31439;53.512;10.206;2022-11-15T07:38:30;21.95;;;15.45;;
45728;SDS011;31439;53.512;10.206;2022-11-15T07:40:59;20.60;;;14.50;;
45728;SDS011;31439;53.512;10.206;2022-11-15T07:43:26;22.13;;;15.43;;
45728;SDS011;31439;53.512;10.206;2022-11-15T07:45:57;21.73;;;14.70;;
45728;SDS011;31439;53.512;10.206;2022-11-15T07:48:23;21.33;;;15.05;;
45728;SDS011;31439;53.512;10.206;2022-11-15T07:50:49;20.48;;;14.70;;
45728;SDS011;31439;53.512;10.206;2022-11-15T07:53:14;22.25;;;15.25;;
45728;SDS011;31439;53.512;10.206;2022-11-15T07:55:40;22.33;;;14.93;;
45728;SDS011;31439;53.512;10.206;2022-11-15T07:58:07;20.92;;;15.20;;
45728;SDS011;31439;53.512;10.206;2022-11-15T08:00:34;23.05;;;15.15;;
45728;SDS011;31439;53.512;10.206;2022-11-15T08:03:01;21.85;;;15.48;;
45728;SDS011;31439;53.512;10.206;2022-11-15T08:05:28;23.30;;;15.23;;
45728;SDS011;31439;53.512;10.206;2022-11-15T08:07:56;23.05;;;15.35;;
45728;SDS011;31439;53.512;10.206;2022-11-15T08:10:22;22.80;;;15.05;;
45728;SDS011;31439;53.512;10.206;2022-11-15T08:12:48;23.25;;;15.32;;
45728;SDS011;31439;53.512;10.206;2022-11-15T08:15:21;25.20;;;15.15;;
45728;SDS011;31439;53.512;10.206;2022-11-15T08:17:46;22.40;;;15.38;;
45728;SDS011;31439;53.512;10.206;2022-11-15T08:20:12;25.15;;;16.02;;
45728;SDS011;31439;53.512;10.206;2022-11-15T08:22:37;21.90;;;15.18;;
45728;SDS011;31439;53.512;10.206;2022-11-15T08:25:03;23.98;;;15.85;;
45728;SDS011;31439;53.512;10.206;2022-11-15T08:27:29;23.48;;;15.75;;
45728;SDS011;31439;53.512;10.206;2022-11-15T08:29:54;23.55;;;16.38;;
45728;SDS011;31439;53.512;10.206;2022-11-15T08:32:21;21.90;;;15.32;;
45728;SDS011;31439;53.512;10.206;2022-11-15T08:34:47;26.38;;;16.92;;
45728;SDS011;31439;53.512;10.206;2022-11-15T08:37:12;22.55;;;15.50;;
45728;SDS011;31439;53.512;10.206;2022-11-15T08:39:38;22.17;;;14.95;;
45728;SDS011;31439;53.512;10.206;2022-11-15T08:42:03;23.15;;;15.57;;
45728;SDS011;31439;53.512;10.206;2022-11-15T08:44:29;22.08;;;15.60;;
45728;SDS011;31439;53.512;10.206;2022-11-15T08:46:55;21.83;;;15.25;;
45728;SDS011;31439;53.512;10.206;2022-11-15T08:49:20;21.05;;;14.93;;
45728;SDS011;31439;53.512;10.206;2022-11-15T08:51:46;29.42;;;15.60;;
45728;SDS011;31439;53.512;10.206;2022-11-15T08:54:11;22.70;;;15.48;;
45728;SDS011;31439;53.512;10.206;2022-11-15T08:56:37;21.65;;;15.35;;
45728;SDS011;31439;53.512;10.206;2022-11-15T08:59:03;22.55;;;15.48;;
45728;SDS011;31439;53.512;10.206;2022-11-15T09:01:28;22.02;;;14.55;;
45728;SDS011;31439;53.512;10.206;2022-11-15T09:03:54;23.63;;;15.05;;
45728;SDS011;31439;53.512;10.206;2022-11-15T09:06:20;22.58;;;15.52;;
45728;SDS011;31439;53.512;10.206;2022-11-15T09:08:45;23.58;;;15.70;;
45728;SDS011;31439;53.512;10.206;2022-11-15T09:11:11;24.05;;;14.40;;
45728;SDS011;31439;53.512;10.206;2022-11-15T09:13:37;22.52;;;15.15;;
45728;SDS011;31439;53.512;10.206;2022-11-15T09:16:03;20.60;;;14.02;;
45728;SDS011;31439;53.512;10.206;2022-11-15T09:18:29;22.58;;;15.27;;
45728;SDS011;31439;53.512;10.206;2022-11-15T09:20:59;21.23;;;14.57;;
45728;SDS011;31439;53.512;10.206;2022-11-15T09:23:25;21.98;;;14.52;;
45728;SDS011;31439;53.512;10.206;2022-11-15T09:25:57;22.35;;;14.05;;
45728;SDS011;31439;53.512;10.206;2022-11-15T09:28:24;21.98;;;14.00;;
45728;SDS011;31439;53.512;10.206;2022-11-15T09:30:49;20.80;;;13.45;;
45728;SDS011;31439;53.512;10.206;2022-11-15T09:33:15;19.88;;;13.48;;
45728;SDS011;31439;53.512;10.206;2022-11-15T09:35:40;19.35;;;13.55;;
45728;SDS011;31439;53.512;10.206;2022-11-15T09:38:09;19.27;;;12.70;;
45728;SDS011;31439;53.512;10.206;2022-11-15T09:40:36;20.80;;;12.93;;
45728;SDS011;31439;53.512;10.206;2022-11-15T09:48:57;18.27;;;12.38;;
45728;SDS011;31439;53.512;10.206;2022-11-15T09:51:36;20.58;;;12.65;;
45728;SDS011;31439;53.512;10.206;2022-11-15T09:57:14;17.30;;;12.27;;
45728;SDS011;31439;53.512;10.206;2022-11-15T10:02:46;17.80;;;12.23;;
45728;SDS011;31439;53.512;10.206;2022-11-15T10:05:38;18.10;;;12.13;;
45728;SDS011;31439;53.512;10.206;2022-11-15T10:11:19;20.13;;;12.05;;
45728;SDS011;31439;53.512;10.206;2022-11-15T10:13:48;18.33;;;13.05;;
45728;SDS011;31439;53.512;10.206;2022-11-15T10:21:53;16.35;;;12.00;;
45728;SDS011;31439;53.512;10.206;2022-11-15T10:24:35;17.70;;;12.20;;
45728;SDS011;31439;53.512;10.206;2022-11-15T10:27:09;17.80;;;12.70;;
45728;SDS011;31439;53.512;10.206;2022-11-15T10:29:47;14.70;;;11.15;;
45728;SDS011;31439;53.512;10.206;2022-11-15T10:32:15;18.10;;;11.40;;
45728;SDS011;31439;53.512;10.206;2022-11-15T10:34:42;17.38;;;10.98;;
45728;SDS011;31439;53.512;10.206;2022-11-15T10:37:08;16.92;;;11.20;;
45728;SDS011;31439;53.512;10.206;2022-11-15T10:39:34;17.05;;;11.30;;
45728;SDS011;31439;53.512;10.206;2022-11-15T10:42:15;16.50;;;10.63;;
45728;SDS011;31439;53.512;10.206;2022-11-15T10:44:44;16.35;;;10.82;;
45728;SDS011;31439;53.512;10.206;2022-11-15T10:47:23;17.30;;;10.60;;
45728;SDS011;31439;53.512;10.206;2022-11-15T10:49:53;19.48;;;11.15;;
45728;SDS011;31439;53.512;10.206;2022-11-15T10:52:28;15.93;;;10.85;;
45728;SDS011;31439;53.512;10.206;2022-11-15T10:54:58;16.00;;;10.18;;
45728;SDS011;31439;53.512;10.206;2022-11-15T10:57:30;17.10;;;10.70;;
45728;SDS011;31439;53.512;10.206;2022-11-15T11:00:06;14.75;;;10.25;;
45728;SDS011;31439;53.512;10.206;2022-11-15T11:02:56;14.50;;;10.13;;
45728;SDS011;31439;53.512;10.206;2022-11-15T11:05:29;14.68;;;9.88;;
45728;SDS011;31439;53.512;10.206;2022-11-15T11:10:36;19.17;;;10.82;;
45728;SDS011;31439;53.512;10.206;2022-11-15T11:13:15;16.63;;;11.25;;
45728;SDS011;31439;53.512;10.206;2022-11-15T11:16:00;16.13;;;10.60;;
45728;SDS011;31439;53.512;10.206;2022-11-15T11:21:09;15.05;;;11.15;;
45728;SDS011;31439;53.512;10.206;2022-11-15T11:23:51;16.70;;;10.90;;
45728;SDS011;31439;53.512;10.206;2022-11-15T11:26:42;18.33;;;11.32;;
45728;SDS011;31439;53.512;10.206;2022-11-15T11:32:03;15.10;;;8.27;;
45728;SDS011;31439;53.512;10.206;2022-11-15T11:40:37;14.45;;;10.65;;
45728;SDS011;31439;53.512;10.206;2022-11-15T11:43:14;14.18;;;9.90;;
45728;SDS011;31439;53.512;10.206;2022-11-15T11:55:02;14.27;;;10.13;;
45728;SDS011;31439;53.512;10.206;2022-11-15T11:58:22;14.43;;;10.38;;
45728;SDS011;31439;53.512;10.206;2022-11-15T12:06:55;15.27;;;10.00;;
45728;SDS011;31439;53.512;10.206;2022-11-15T12:09:39;19.13;;;10.75;;
45728;SDS011;31439;53.512;10.206;2022-11-15T12:14:51;15.15;;;9.77;;
45728;SDS011;31439;53.512;10.206;2022-11-15T12:17:29;15.55;;;11.10;;
45728;SDS011;31439;53.512;10.206;2022-11-15T12:20:00;15.57;;;10.43;;
45728;SDS011;31439;53.512;10.206;2022-11-15T12:30:54;17.50;;;12.32;;
45728;SDS011;31439;53.512;10.206;2022-11-15T12:36:05;18.40;;;12.13;;
45728;SDS011;31439;53.512;10.206;2022-11-15T12:38:52;21.63;;;10.90;;
45728;SDS011;31439;53.512;10.206;2022-11-15T12:41:29;16.80;;;10.98;;
45728;SDS011;31439;53.512;10.206;2022-11-15T12:44:00;18.40;;;10.48;;
45728;SDS011;31439;53.512;10.206;2022-11-15T13:02:35;14.68;;;10.35;;
45728;SDS011;31439;53.512;10.206;2022-11-15T13:30:50;14.80;;;9.80;;
45728;SDS011;31439;53.512;10.206;2022-11-15T13:35:46;12.40;;;8.68;;
45728;SDS011;31439;53.512;10.206;2022-11-15T13:38:36;13.32;;;9.48;;
45728;SDS011;31439;53.512;10.206;2022-11-15T13:41:22;14.90;;;9.25;;
45728;SDS011;31439;53.512;10.206;2022-11-15T13:43:50;14.15;;;9.20;;
45728;SDS011;31439;53.512;10.206;2022-11-15T13:46:18;14.75;;;9.52;;
45728;SDS011;31439;53.512;10.206;2022-11-15T13:48:46;14.07;;;8.80;;
45728;SDS011;31439;53.512;10.206;2022-11-15T13:59:49;14.52;;;9.20;;
45728;SDS011;31439;53.512;10.206;2022-11-15T14:02:21;11.85;;;8.95;;
45728;SDS011;31439;53.512;10.206;2022-11-15T14:05:01;12.68;;;8.80;;
45728;SDS011;31439;53.512;10.206;2022-11-15T14:07:44;11.68;;;9.07;;
45728;SDS011;31439;53.512;10.206;2022-11-15T14:10:39;15.75;;;8.70;;
45728;SDS011;31439;53.512;10.206;2022-11-15T14:15:54;13.52;;;7.95;;
45728;SDS011;31439;53.512;10.206;2022-11-15T14:21:21;10.85;;;7.30;;
45728;SDS011;31439;53.512;10.206;2022-11-15T14:23:47;10.15;;;7.57;;
45728;SDS011;31439;53.512;10.206;2022-11-15T14:26:31;12.52;;;8.25;;
45728;SDS011;31439;53.512;10.206;2022-11-15T14:32:11;12.77;;;7.88;;
45728;SDS011;31439;53.512;10.206;2022-11-15T14:34:39;13.55;;;8.40;;
45728;SDS011;31439;53.512;10.206;2022-11-15T14:37:04;13.45;;;8.38;;
45728;SDS011;31439;53.512;10.206;2022-11-15T14:39:33;11.88;;;8.20;;
45728;SDS011;31439;53.512;10.206;2022-11-15T14:41:58;11.52;;;7.80;;
45728;SDS011;31439;53.512;10.206;2022-11-15T14:44:24;10.90;;;7.78;;
45728;SDS011;31439;53.512;10.206;2022-11-15T14:46:49;11.30;;;8.25;;
45728;SDS011;31439;53.512;10.206;2022-11-15T14:49:15;12.27;;;8.65;;
45728;SDS011;31439;53.512;10.206;2022-11-15T14:51:41;14.20;;;8.65;;
45728;SDS011;31439;53.512;10.206;2022-11-15T14:54:09;12.02;;;8.23;;
45728;SDS011;31439;53.512;10.206;2022-11-15T14:56:35;10.77;;;8.43;;
45728;SDS011;31439;53.512;10.206;2022-11-15T14:59:01;11.48;;;8.13;;
45728;SDS011;31439;53.512;10.206;2022-11-15T15:01:26;13.20;;;8.32;;
45728;SDS011;31439;53.512;10.206;2022-11-15T15:03:53;11.57;;;8.00;;
45728;SDS011;31439;53.512;10.206;2022-11-15T15:06:23;14.27;;;8.82;;
45728;SDS011;31439;53.512;10.206;2022-11-15T15:08:49;12.32;;;9.05;;
45728;SDS011;31439;53.512;10.206;2022-11-15T15:11:21;12.90;;;8.38;;
45728;SDS011;31439;53.512;10.206;2022-11-15T15:13:51;14.38;;;8.60;;
45728;SDS011;31439;53.512;10.206;2022-11-15T15:16:21;9.80;;;7.82;;
45728;SDS011;31439;53.512;10.206;2022-11-15T15:18:46;12.70;;;8.65;;
45728;SDS011;31439;53.512;10.206;2022-11-15T15:21:27;13.05;;;8.70;;
45728;SDS011;31439;53.512;10.206;2022-11-15T15:23:54;13.38;;;8.50;;
45728;SDS011;31439;53.512;10.206;2022-11-15T15:26:19;12.65;;;8.70;;
45728;SDS011;31439;53.512;10.206;2022-11-15T15:28:46;15.63;;;9.15;;
45728;SDS011;31439;53.512;10.206;2022-11-15T15:31:13;13.18;;;7.93;;
45728;SDS011;31439;53.512;10.206;2022-11-15T15:33:39;16.88;;;8.80;;
45728;SDS011;31439;53.512;10.206;2022-11-15T15:36:08;14.02;;;8.60;;
45728;SDS011;31439;53.512;10.206;2022-11-15T15:38:38;13.65;;;8.93;;
45728;SDS011;31439;53.512;10.206;2022-11-15T15:41:10;12.05;;;8.18;;
45728;SDS011;31439;53.512;10.206;2022-11-15T15:43:39;13.68;;;9.02;;
45728;SDS011;31439;53.512;10.206;2022-11-15T15:46:09;11.52;;;8.38;;
45728;SDS011;31439;53.512;10.206;2022-11-15T15:48:42;13.35;;;9.38;;
45728;SDS011;31439;53.512;10.206;2022-11-15T15:51:08;13.15;;;9.32;;
45728;SDS011;31439;53.512;10.206;2022-11-15T15:53:35;11.60;;;9.05;;
45728;SDS011;31439;53.512;10.206;2022-11-15T15:56:00;12.02;;;8.35;;
45728;SDS011;31439;53.512;10.206;2022-11-15T15:58:26;13.88;;;8.82;;
45728;SDS011;31439;53.512;10.206;2022-11-15T16:00:52;13.82;;;9.50;;
45728;SDS011;31439;53.512;10.206;2022-11-15T16:03:18;15.85;;;8.88;;
45728;SDS011;31439;53.512;10.206;2022-11-15T16:05:43;13.45;;;8.52;;
45728;SDS011;31439;53.512;10.206;2022-11-15T16:08:16;15.57;;;9.13;;
45728;SDS011;31439;53.512;10.206;2022-11-15T16:10:47;12.88;;;8.90;;
45728;SDS011;31439;53.512;10.206;2022-11-15T16:13:13;14.15;;;8.95;;
45728;SDS011;31439;53.512;10.206;2022-11-15T16:15:39;12.80;;;9.25;;
45728;SDS011;31439;53.512;10.206;2022-11-15T16:18:05;13.38;;;9.88;;
45728;SDS011;31439;53.512;10.206;2022-11-15T16:22:58;13.55;;;8.95;;
45728;SDS011;31439;53.512;10.206;2022-11-15T16:25:24;13.30;;;8.85;;
45728;SDS011;31439;53.512;10.206;2022-11-15T16:27:50;13.45;;;9.27;;
45728;SDS011;31439;53.512;10.206;2022-11-15T16:30:17;13.77;;;9.52;;
45728;SDS011;31439;53.512;10.206;2022-11-15T16:32:44;15.23;;;9.93;;
45728;SDS011;31439;53.512;10.206;2022-11-15T16:35:14;16.48;;;10.32;;
45728;SDS011;31439;53.512;10.206;2022-11-15T16:40:17;17.08;;;9.70;;
45728;SDS011;31439;53.512;10.206;2022-11-15T16:42:45;16.98;;;9.50;;
45728;SDS011;31439;53.512;10.206;2022-11-15T16:45:11;15.65;;;9.80;;
45728;SDS011;31439;53.512;10.206;2022-11-15T16:47:38;13.68;;;9.65;;
45728;SDS011;31439;53.512;10.206;2022-11-15T16:50:04;13.13;;;9.75;;
45728;SDS011;31439;53.512;10.206;2022-11-15T16:52:30;16.75;;;9.85;;
45728;SDS011;31439;53.512;10.206;2022-11-15T16:54:56;12.40;;;9.38;;
45728;SDS011;31439;53.512;10.206;2022-11-15T16:57:21;13.95;;;9.82;;
45728;SDS011;31439;53.512;10.206;2022-11-15T16:59:47;16.15;;;9.63;;
45728;SDS011;31439;53.512;10.206;2022-11-15T17:02:12;14.95;;;10.10;;
45728;SDS011;31439;53.512;10.206;2022-11-15T17:04:46;14.77;;;10.10;;
45728;SDS011;31439;53.512;10.206;2022-11-15T17:07:11;16.55;;;10.05;;